createdAt,value
2023-02-10T00:00:37.517Z,48.88
2023-02-10T00:03:06.867Z,47.55
2023-02-10T00:05:36.152Z,48.00
2023-02-10T00:08:05.740Z,49.78
2023-02-10T00:10:34.961Z,50.13
2023-02-10T00:13:04.270Z,51.22
2023-02-10T00:15:33.603Z,50.58
2023-02-10T00:18:02.887Z,48.92
2023-02-10T00:20:32.242Z,52.15
2023-02-10T00:23:01.594Z,51.47
2023-02-10T00:25:30.891Z,50.40
2023-02-10T00:28:00.204Z,55.38
2023-02-10T00:30:29.546Z,60.05
2023-02-10T00:32:59.342Z,58.45
2023-02-10T00:35:28.918Z,56.55
2023-02-10T00:37:58.455Z,54.38
2023-02-10T00:40:27.745Z,54.83
2023-02-10T00:42:57.143Z,55.72
2023-02-10T00:45:26.839Z,60.67
2023-02-10T00:47:56.732Z,55.20
2023-02-10T00:50:26.248Z,53.42
2023-02-10T00:52:55.509Z,65.68
2023-02-10T00:55:24.878Z,62.95
2023-02-10T00:57:54.133Z,56.80
2023-02-10T01:00:23.554Z,66.47
2023-02-10T01:02:52.928Z,66.57
2023-02-10T01:05:22.263Z,66.32
2023-02-10T01:07:51.595Z,65.03
2023-02-10T01:10:21.404Z,66.88
2023-02-10T01:12:50.772Z,65.68
2023-02-10T01:15:20.523Z,63.35
2023-02-10T01:17:49.881Z,63.35
2023-02-10T01:20:19.215Z,59.22
2023-02-10T01:22:48.631Z,56.90
2023-02-10T01:25:18.573Z,58.33
2023-02-10T01:27:48.027Z,58.78
2023-02-10T01:30:17.477Z,59.80
2023-02-10T01:32:46.797Z,63.35
2023-02-10T01:35:16.123Z,64.57
2023-02-10T01:37:45.547Z,62.28
2023-02-10T01:40:15.377Z,58.78
2023-02-10T01:42:45.051Z,58.50
2023-02-10T01:45:50.110Z,58.55
2023-02-10T01:48:21.687Z,57.00
2023-02-10T01:51:09.361Z,57.50
2023-02-10T01:53:38.883Z,58.00
2023-02-10T01:56:14.614Z,59.25
2023-02-10T01:58:48.845Z,59.08
2023-02-10T02:01:20.077Z,55.10
2023-02-10T02:03:52.543Z,56.35
2023-02-10T02:06:21.852Z,58.25
2023-02-10T02:08:56.895Z,58.20
2023-02-10T02:11:57.986Z,56.03
2023-02-10T02:14:51.270Z,55.95
2023-02-10T02:18:13.884Z,57.80
2023-02-10T02:21:03.787Z,55.05
2023-02-10T02:24:09.828Z,55.10
2023-02-10T02:27:12.564Z,56.72
2023-02-10T02:30:14.006Z,55.75
2023-02-10T02:32:54.696Z,54.78
2023-02-10T02:35:33.983Z,52.90
2023-02-10T02:38:03.658Z,48.65
2023-02-10T02:40:33.446Z,49.67
2023-02-10T02:43:02.694Z,49.28
2023-02-10T02:45:57.595Z,50.30
2023-02-10T02:49:07.786Z,47.40
2023-02-10T02:52:11.878Z,51.67
2023-02-10T02:55:41.540Z,46.95
2023-02-10T02:58:21.808Z,46.05
2023-02-10T03:00:54.058Z,48.45
2023-02-10T03:03:23.870Z,44.67
2023-02-10T03:05:52.986Z,38.17
2023-02-10T03:08:22.269Z,39.80
2023-02-10T03:10:51.413Z,39.90
2023-02-10T03:13:20.590Z,40.60
2023-02-10T03:15:50.300Z,39.80
2023-02-10T03:18:20.109Z,39.50
2023-02-10T03:20:49.306Z,39.65
2023-02-10T03:23:18.614Z,40.67
2023-02-10T03:25:50.032Z,39.80
2023-02-10T03:28:19.740Z,41.17
2023-02-10T03:30:51.053Z,40.22
2023-02-10T03:33:20.933Z,38.53
2023-02-10T03:35:54.584Z,35.03
2023-02-10T03:38:24.303Z,37.53
2023-02-10T03:40:54.985Z,38.10
2023-02-10T03:43:24.915Z,36.38
2023-02-10T03:45:54.573Z,34.92
2023-02-10T03:48:24.083Z,36.42
2023-02-10T03:50:53.248Z,35.47
2023-02-10T03:53:22.389Z,35.85
2023-02-10T03:55:51.610Z,35.40
2023-02-10T03:58:21.150Z,35.45
2023-02-10T04:00:50.910Z,34.28
2023-02-10T04:03:21.461Z,35.55
2023-02-10T04:05:50.816Z,33.88
2023-02-10T04:08:20.061Z,33.80
2023-02-10T04:10:49.318Z,33.75
2023-02-10T04:13:18.466Z,33.35
2023-02-10T04:15:47.946Z,34.65
2023-02-10T04:18:19.566Z,31.52
2023-02-10T04:20:48.914Z,32.15
2023-02-10T04:23:18.084Z,30.92
2023-02-10T04:25:47.833Z,29.00
2023-02-10T04:28:17.409Z,31.33
2023-02-10T04:30:46.628Z,29.27
2023-02-10T04:33:16.140Z,30.25
2023-02-10T04:35:46.767Z,29.58
2023-02-10T04:38:16.454Z,28.52
2023-02-10T04:40:46.116Z,29.20
2023-02-10T04:43:16.470Z,28.38
2023-02-10T04:45:47.864Z,26.00
2023-02-10T04:48:17.408Z,25.25
2023-02-10T04:50:46.794Z,27.13
2023-02-10T04:53:15.998Z,26.90
2023-02-10T04:55:45.294Z,23.35
2023-02-10T04:58:14.955Z,23.55
2023-02-10T05:00:44.178Z,23.30
2023-02-10T05:03:13.305Z,20.10
2023-02-10T05:05:42.526Z,20.45
2023-02-10T05:08:11.677Z,21.33
2023-02-10T05:10:40.815Z,19.52
2023-02-10T05:13:10.029Z,19.77
2023-02-10T05:15:39.144Z,19.95
2023-02-10T05:18:08.455Z,21.90
2023-02-10T05:20:38.163Z,19.65
2023-02-10T05:23:07.981Z,19.63
2023-02-10T05:25:37.153Z,20.38
2023-02-10T05:28:06.417Z,20.27
2023-02-10T05:30:35.675Z,20.63
2023-02-10T05:33:04.810Z,21.90
2023-02-10T05:35:33.952Z,22.15
2023-02-10T05:38:05.781Z,16.63
2023-02-10T05:40:35.341Z,17.13
2023-02-10T05:43:04.922Z,17.30
2023-02-10T05:45:35.220Z,17.27
2023-02-10T05:48:04.482Z,15.50
2023-02-10T05:50:33.669Z,21.27
2023-02-10T05:53:02.774Z,16.35
2023-02-10T05:55:31.876Z,15.38
2023-02-10T05:58:01.018Z,14.57
2023-02-10T06:00:30.174Z,14.63
2023-02-10T06:02:59.355Z,15.07
2023-02-10T06:05:28.565Z,14.30
2023-02-10T06:07:57.769Z,14.13
2023-02-10T06:10:26.941Z,13.00
2023-02-10T06:12:56.068Z,14.50
2023-02-10T06:15:25.256Z,13.77
2023-02-10T06:17:54.407Z,15.55
2023-02-10T06:20:25.035Z,19.13
2023-02-10T06:22:55.103Z,15.70
2023-02-10T06:25:24.988Z,14.73
2023-02-10T06:27:54.646Z,15.25
2023-02-10T06:30:26.569Z,14.45
2023-02-10T06:32:57.008Z,14.55
2023-02-10T06:35:26.232Z,14.35
2023-02-10T06:37:55.565Z,15.20
2023-02-10T06:40:24.711Z,14.15
2023-02-10T06:42:53.874Z,16.13
2023-02-10T06:45:23.037Z,15.00
2023-02-10T06:47:52.227Z,14.40
2023-02-10T06:50:21.479Z,14.57
2023-02-10T06:52:51.180Z,14.55
2023-02-10T06:55:20.930Z,15.20
2023-02-10T06:57:50.921Z,14.27
2023-02-10T07:00:20.215Z,14.68
2023-02-10T07:02:50.190Z,14.75
2023-02-10T07:05:19.618Z,14.88
2023-02-10T07:07:49.068Z,15.18
2023-02-10T07:10:18.284Z,12.75
2023-02-10T07:12:51.016Z,13.05
2023-02-10T07:15:20.659Z,13.32
2023-02-10T07:17:49.776Z,12.88
2023-02-10T07:20:22.459Z,14.95
2023-02-10T07:22:53.471Z,13.57
2023-02-10T07:25:22.953Z,14.18
2023-02-10T07:27:53.444Z,13.80
2023-02-10T07:30:22.771Z,16.17
2023-02-10T07:32:52.143Z,13.85
2023-02-10T07:35:23.203Z,15.45
2023-02-10T07:37:52.658Z,14.63
2023-02-10T07:40:21.904Z,15.63
2023-02-10T07:42:51.178Z,15.65
2023-02-10T07:45:21.558Z,17.13
2023-02-10T07:47:50.678Z,16.70
2023-02-10T07:50:20.133Z,15.75
2023-02-10T07:52:50.170Z,16.10
2023-02-10T07:55:19.858Z,15.57
2023-02-10T07:57:49.442Z,16.33
2023-02-10T08:00:19.540Z,16.45
2023-02-10T08:02:48.709Z,15.98
2023-02-10T08:05:18.787Z,15.82
2023-02-10T08:07:48.019Z,15.63
2023-02-10T08:10:17.773Z,15.68
2023-02-10T08:12:48.606Z,15.88
2023-02-10T08:15:19.054Z,15.30
2023-02-10T08:17:48.181Z,17.45
2023-02-10T08:20:17.470Z,17.80
2023-02-10T08:22:46.758Z,15.55
2023-02-10T08:25:15.986Z,16.73
2023-02-10T08:27:45.056Z,15.70
2023-02-10T08:30:14.644Z,16.00
2023-02-10T08:32:43.707Z,15.70
2023-02-10T08:35:13.138Z,16.27
2023-02-10T08:37:42.317Z,17.02
2023-02-10T08:40:12.263Z,19.77
2023-02-10T08:42:41.394Z,17.30
2023-02-10T08:45:11.949Z,16.15
2023-02-10T08:47:41.329Z,16.00
2023-02-10T08:50:10.790Z,16.70
2023-02-10T08:52:40.143Z,17.00
2023-02-10T08:55:09.884Z,15.30
2023-02-10T08:57:39.804Z,18.00
2023-02-10T09:00:11.675Z,17.08
2023-02-10T09:02:41.058Z,15.88
2023-02-10T09:05:11.394Z,16.67
2023-02-10T09:07:41.023Z,14.73
2023-02-10T09:10:13.185Z,14.15
2023-02-10T09:12:44.013Z,15.10
2023-02-10T09:15:13.672Z,14.77
2023-02-10T09:17:43.000Z,14.43
2023-02-10T09:20:13.567Z,14.15
2023-02-10T09:22:42.852Z,14.27
2023-02-10T09:25:12.323Z,14.70
2023-02-10T09:27:41.641Z,16.20
2023-02-10T09:30:11.746Z,14.35
2023-02-10T09:32:41.075Z,14.60
2023-02-10T09:35:10.448Z,15.40
2023-02-10T09:37:39.770Z,15.57
2023-02-10T09:40:11.956Z,16.88
2023-02-10T09:42:49.593Z,16.40
2023-02-10T09:45:34.754Z,15.65
2023-02-10T09:48:33.575Z,17.30
2023-02-10T09:51:37.558Z,17.80
2023-02-10T09:54:14.695Z,16.75
2023-02-10T09:56:44.220Z,17.47
2023-02-10T09:59:25.271Z,15.27
2023-02-10T10:02:02.848Z,16.65
2023-02-10T10:04:34.862Z,14.63
2023-02-10T10:07:40.633Z,15.00
2023-02-10T10:10:42.536Z,14.93
2023-02-10T10:13:27.578Z,14.23
2023-02-10T10:16:25.101Z,15.25
2023-02-10T10:19:23.537Z,13.95
2023-02-10T10:22:41.904Z,13.38
2023-02-10T10:25:17.796Z,15.07
2023-02-10T10:28:26.722Z,18.05
2023-02-10T10:30:56.008Z,14.93
2023-02-10T10:33:51.239Z,14.93
2023-02-10T10:36:32.146Z,13.90
2023-02-10T10:39:40.697Z,19.58
2023-02-10T10:42:18.852Z,15.25
2023-02-10T10:44:51.831Z,14.23
2023-02-10T10:47:47.339Z,14.88
2023-02-10T10:50:21.105Z,12.95
2023-02-10T10:52:55.321Z,14.52
2023-02-10T10:55:42.668Z,14.63
2023-02-10T10:58:48.292Z,17.23
2023-02-10T11:01:19.846Z,15.32
2023-02-10T11:03:49.101Z,14.98
2023-02-10T11:06:20.606Z,15.65
2023-02-10T11:09:04.427Z,15.45
2023-02-10T11:11:43.115Z,15.82
2023-02-10T11:14:24.190Z,15.90
2023-02-10T11:17:04.910Z,15.63
2023-02-10T11:19:48.736Z,15.50
2023-02-10T11:22:23.689Z,16.42
2023-02-10T11:25:21.873Z,16.05
2023-02-10T11:27:56.870Z,16.40
2023-02-10T11:30:42.110Z,15.65
2023-02-10T11:33:25.651Z,15.55
2023-02-10T11:36:15.180Z,16.88
2023-02-10T11:38:44.840Z,17.75
2023-02-10T11:41:15.052Z,17.60
2023-02-10T11:43:49.887Z,18.08
2023-02-10T11:46:31.333Z,18.00
2023-02-10T11:49:09.253Z,18.33
2023-02-10T11:51:38.488Z,21.63
2023-02-10T11:54:12.510Z,19.60
2023-02-10T11:57:41.610Z,27.92
2023-02-10T12:00:24.794Z,19.55
2023-02-10T12:03:15.507Z,18.90
2023-02-10T12:05:56.480Z,19.80
2023-02-10T12:08:43.295Z,19.70
2023-02-10T12:11:22.052Z,20.75
2023-02-10T12:14:35.371Z,20.35
2023-02-10T12:17:25.356Z,19.83
2023-02-10T12:20:32.629Z,18.65
2023-02-10T12:23:26.684Z,20.45
2023-02-10T12:26:26.568Z,21.33
2023-02-10T12:29:25.188Z,20.98
2023-02-10T12:32:19.882Z,19.15
2023-02-10T12:35:13.583Z,18.55
2023-02-10T12:37:58.396Z,17.40
2023-02-10T12:40:51.961Z,17.58
2023-02-10T12:43:49.216Z,18.42
2023-02-10T12:46:55.485Z,20.20
2023-02-10T12:49:34.614Z,20.88
2023-02-10T12:52:20.459Z,21.08
2023-02-10T12:55:06.716Z,18.95
2023-02-10T12:58:03.627Z,18.33
2023-02-10T13:00:53.614Z,18.23
2023-02-10T13:03:37.523Z,19.58
2023-02-10T13:06:46.468Z,18.45
2023-02-10T13:09:43.855Z,19.25
2023-02-10T13:12:27.021Z,18.60
2023-02-10T13:15:08.176Z,18.02
2023-02-10T13:17:49.696Z,18.30
2023-02-10T13:20:33.910Z,18.75
2023-02-10T13:23:36.315Z,19.02
2023-02-10T13:26:28.723Z,18.23
2023-02-10T13:29:20.536Z,19.77
2023-02-10T13:32:30.097Z,18.02
2023-02-10T13:35:03.277Z,17.67
2023-02-10T13:37:46.570Z,18.95
2023-02-10T13:40:30.048Z,17.98
2023-02-10T13:43:07.022Z,20.80
2023-02-10T13:45:40.389Z,20.60
2023-02-10T13:48:40.233Z,22.55
2023-02-10T13:51:12.447Z,22.23
2023-02-10T13:53:44.350Z,22.35
2023-02-10T13:56:22.773Z,23.38
2023-02-10T13:59:06.720Z,24.35
2023-02-10T14:01:50.405Z,23.70
2023-02-10T14:04:22.453Z,25.33
2023-02-10T14:06:54.949Z,25.33
2023-02-10T14:09:33.598Z,25.77
2023-02-10T14:12:29.972Z,27.95
2023-02-10T14:15:10.455Z,27.02
2023-02-10T14:17:41.351Z,28.00
2023-02-10T14:20:26.078Z,28.00
2023-02-10T14:23:01.293Z,30.73
2023-02-10T14:25:41.872Z,31.02
2023-02-10T14:28:26.402Z,30.40
2023-02-10T14:31:02.375Z,29.08
2023-02-10T14:33:37.467Z,30.85
2023-02-10T14:36:20.820Z,31.25
2023-02-10T14:39:03.598Z,32.17
2023-02-10T14:41:36.018Z,31.25
2023-02-10T14:44:06.076Z,32.38
2023-02-10T14:46:38.063Z,30.38
2023-02-10T14:49:17.691Z,27.10
2023-02-10T14:51:48.171Z,28.15
2023-02-10T14:54:27.694Z,27.55
2023-02-10T14:57:00.807Z,25.75
2023-02-10T14:59:34.850Z,26.50
2023-02-10T15:02:24.907Z,26.30
2023-02-10T15:04:59.056Z,26.95
2023-02-10T15:07:46.704Z,27.13
2023-02-10T15:10:41.708Z,27.02
2023-02-10T15:13:12.749Z,28.20
2023-02-10T15:15:53.026Z,29.33
2023-02-10T15:18:28.385Z,23.85
2023-02-10T15:21:07.751Z,28.20
2023-02-10T15:23:36.840Z,18.15
2023-02-10T15:26:22.306Z,20.13
2023-02-10T15:29:13.197Z,20.50
2023-02-10T15:31:47.708Z,19.60
2023-02-10T15:34:28.662Z,19.40
2023-02-10T15:37:07.801Z,21.23
2023-02-10T15:39:43.739Z,19.77
2023-02-10T15:42:17.920Z,19.25
2023-02-10T15:44:47.952Z,19.52
2023-02-10T15:47:29.639Z,20.63
2023-02-10T15:50:01.041Z,22.17
2023-02-10T15:52:36.415Z,21.20
2023-02-10T15:55:20.985Z,21.98
2023-02-10T15:57:50.768Z,24.33
2023-02-10T16:00:30.834Z,24.13
2023-02-10T16:03:00.348Z,24.25
2023-02-10T16:05:31.619Z,24.80
2023-02-10T16:08:08.535Z,23.23
2023-02-10T16:10:38.106Z,22.63
2023-02-10T16:13:07.362Z,24.58
2023-02-10T16:15:36.830Z,24.92
2023-02-10T16:18:06.303Z,23.75
2023-02-10T16:20:36.612Z,24.20
2023-02-10T16:23:06.946Z,25.60
2023-02-10T16:25:36.523Z,21.70
2023-02-10T16:28:06.021Z,23.42
2023-02-10T16:30:37.895Z,23.00
2023-02-10T16:33:07.413Z,22.73
2023-02-10T16:35:36.770Z,21.80
2023-02-10T16:38:06.565Z,24.52
2023-02-10T16:40:41.720Z,23.13
2023-02-10T16:43:11.461Z,24.52
2023-02-10T16:45:41.053Z,22.48
2023-02-10T16:48:14.562Z,22.45
2023-02-10T16:50:45.758Z,22.70
2023-02-10T16:53:15.089Z,21.95
2023-02-10T16:55:45.137Z,23.73
2023-02-10T16:58:19.545Z,25.65
2023-02-10T17:00:48.761Z,24.08
2023-02-10T17:03:18.152Z,25.63
2023-02-10T17:05:48.460Z,23.65
2023-02-10T17:08:18.228Z,25.85
2023-02-10T17:10:47.345Z,26.27
2023-02-10T17:13:16.585Z,24.70
2023-02-10T17:15:46.106Z,26.33
2023-02-10T17:18:17.445Z,26.73
2023-02-10T17:20:46.606Z,27.08
2023-02-10T17:23:16.623Z,29.02
2023-02-10T17:25:45.832Z,29.33
2023-02-10T17:28:18.103Z,28.38
2023-02-10T17:30:47.987Z,27.23
2023-02-10T17:33:50.067Z,26.65
2023-02-10T17:36:22.457Z,39.60
2023-02-10T17:38:52.380Z,30.42
2023-02-10T17:41:27.860Z,26.55
2023-02-10T17:44:01.009Z,24.75
2023-02-10T17:46:30.484Z,25.63
2023-02-10T17:48:59.668Z,25.02
2023-02-10T17:51:28.779Z,26.77
2023-02-10T17:53:57.885Z,26.88
2023-02-10T17:56:27.032Z,26.08
2023-02-10T17:58:56.317Z,26.00
2023-02-10T18:01:29.619Z,27.63
2023-02-10T18:03:59.908Z,27.10
2023-02-10T18:06:31.055Z,25.73
2023-02-10T18:09:01.498Z,28.17
2023-02-10T18:11:32.798Z,26.92
2023-02-10T18:14:02.925Z,25.73
2023-02-10T18:16:33.166Z,26.13
2023-02-10T18:19:02.754Z,27.77
2023-02-10T18:21:31.894Z,26.90
2023-02-10T18:24:03.007Z,26.98
2023-02-10T18:26:32.146Z,27.23
2023-02-10T18:29:01.277Z,25.85
2023-02-10T18:31:30.420Z,26.23
2023-02-10T18:33:59.552Z,26.50
2023-02-10T18:36:28.795Z,31.40
2023-02-10T18:38:57.913Z,32.70
2023-02-10T18:41:27.838Z,30.05
2023-02-10T18:43:57.006Z,29.80
2023-02-10T18:46:26.811Z,27.92
2023-02-10T18:48:57.230Z,29.95
2023-02-10T18:51:26.673Z,31.27
2023-02-10T18:53:55.872Z,30.30
2023-02-10T18:56:25.002Z,28.42
2023-02-10T18:58:54.187Z,34.25
2023-02-10T19:01:27.166Z,33.35
2023-02-10T19:04:02.192Z,34.03
2023-02-10T19:06:33.646Z,33.67
2023-02-10T19:09:02.786Z,34.20
2023-02-10T19:11:31.984Z,34.03
2023-02-10T19:14:01.192Z,34.45
2023-02-10T19:16:30.646Z,34.97
2023-02-10T19:19:03.225Z,35.30
2023-02-10T19:21:32.371Z,35.67
2023-02-10T19:24:01.633Z,36.53
2023-02-10T19:26:30.904Z,37.40
2023-02-10T19:29:00.536Z,37.03
2023-02-10T19:31:29.757Z,36.13
2023-02-10T19:33:59.042Z,35.28
2023-02-10T19:36:28.293Z,34.05
2023-02-10T19:38:57.443Z,33.85
2023-02-10T19:41:30.912Z,35.13
2023-02-10T19:44:00.598Z,33.10
2023-02-10T19:46:29.918Z,33.30
2023-02-10T19:48:59.100Z,33.42
2023-02-10T19:51:28.257Z,33.85
2023-02-10T19:53:57.373Z,31.45
2023-02-10T19:56:26.847Z,31.15
2023-02-10T19:58:57.795Z,30.45
2023-02-10T20:01:27.363Z,29.55
2023-02-10T20:03:58.124Z,30.73
2023-02-10T20:06:35.077Z,30.60
2023-02-10T20:09:04.684Z,29.17
2023-02-10T20:11:34.133Z,26.52
2023-02-10T20:14:03.870Z,28.70
2023-02-10T20:16:33.304Z,29.08
2023-02-10T20:19:02.403Z,29.75
2023-02-10T20:21:31.565Z,29.90
2023-02-10T20:24:00.692Z,28.42
2023-02-10T20:26:30.006Z,29.92
2023-02-10T20:28:59.270Z,30.80
2023-02-10T20:31:28.535Z,29.73
2023-02-10T20:33:57.773Z,30.08
2023-02-10T20:36:26.958Z,30.27
2023-02-10T20:38:56.202Z,31.17
2023-02-10T20:41:25.454Z,29.25
2023-02-10T20:43:54.701Z,30.23
2023-02-10T20:46:26.879Z,30.02
2023-02-10T20:48:56.165Z,30.38
2023-02-10T20:51:25.819Z,30.77
2023-02-10T20:53:54.994Z,29.40
2023-02-10T20:56:24.137Z,29.63
2023-02-10T20:58:53.238Z,28.92
2023-02-10T21:01:22.550Z,29.90
2023-02-10T21:03:51.682Z,29.20
2023-02-10T21:06:27.135Z,31.10
2023-02-10T21:08:59.223Z,29.50
2023-02-10T21:11:31.411Z,30.35
2023-02-10T21:14:00.581Z,29.70
2023-02-10T21:16:30.575Z,28.58
2023-02-10T21:18:59.893Z,28.88
2023-02-10T21:21:29.043Z,29.23
2023-02-10T21:23:58.200Z,28.20
2023-02-10T21:26:28.194Z,28.33
2023-02-10T21:28:57.704Z,28.75
2023-02-10T21:31:26.970Z,27.45
2023-02-10T21:33:56.128Z,27.98
2023-02-10T21:36:29.454Z,29.77
2023-02-10T21:39:02.339Z,28.20
2023-02-10T21:41:43.618Z,29.15
2023-02-10T21:44:30.521Z,28.15
2023-02-10T21:47:08.367Z,30.33
2023-02-10T21:49:38.710Z,28.95
2023-02-10T21:52:10.715Z,28.45
2023-02-10T21:54:41.921Z,29.08
2023-02-10T21:57:15.059Z,29.13
2023-02-10T21:59:44.208Z,28.02
2023-02-10T22:02:16.076Z,29.15
2023-02-10T22:04:45.581Z,29.00
2023-02-10T22:07:14.903Z,30.23
2023-02-10T22:09:44.033Z,31.25
2023-02-10T22:12:13.233Z,29.45
2023-02-10T22:14:42.428Z,31.58
2023-02-10T22:17:11.660Z,30.35
2023-02-10T22:19:40.904Z,30.55
2023-02-10T22:22:10.143Z,33.97
2023-02-10T22:24:39.389Z,45.40
2023-02-10T22:27:08.519Z,43.45
2023-02-10T22:29:37.859Z,32.95
2023-02-10T22:32:07.594Z,31.85
2023-02-10T22:34:36.904Z,31.48
2023-02-10T22:37:06.219Z,30.70
2023-02-10T22:39:35.478Z,32.35
2023-02-10T22:42:04.821Z,33.13
2023-02-10T22:44:34.111Z,34.50
2023-02-10T22:47:03.414Z,33.75
2023-02-10T22:49:32.626Z,33.40
2023-02-10T22:52:01.851Z,35.10
2023-02-10T22:54:31.124Z,34.80
2023-02-10T22:57:00.386Z,35.17
2023-02-10T22:59:29.773Z,33.33
2023-02-10T23:01:59.040Z,33.67
2023-02-10T23:04:28.423Z,33.47
2023-02-10T23:06:57.999Z,33.60
2023-02-10T23:09:27.519Z,33.47
2023-02-10T23:11:56.910Z,35.70
2023-02-10T23:14:26.372Z,34.47
2023-02-10T23:16:58.051Z,37.95
2023-02-10T23:19:30.332Z,36.92
2023-02-10T23:22:00.101Z,36.13
2023-02-10T23:24:29.449Z,36.50
2023-02-10T23:26:58.848Z,36.53
2023-02-10T23:29:28.818Z,33.70
2023-02-10T23:31:58.461Z,32.78
2023-02-10T23:34:27.788Z,33.03
2023-02-10T23:36:56.915Z,33.45
2023-02-10T23:39:26.033Z,33.05
2023-02-10T23:41:55.158Z,31.70
2023-02-10T23:44:24.282Z,33.15
2023-02-10T23:46:53.617Z,32.92
2023-02-10T23:49:22.787Z,33.08
2023-02-10T23:51:51.908Z,36.75
2023-02-10T23:54:21.001Z,38.33
2023-02-10T23:56:50.160Z,49.78
2023-02-10T23:59:19.307Z,44.92
